sensor_id;sensor_type;location;lat;lon;timestamp;P1;durP1;ratioP1;P2;durP2;ratioP2
57401;SDS011;43226;51.110;6.998;2022-07-01T00:01:25;9.40;;;6.27;;
57401;SDS011;43226;51.110;6.998;2022-07-01T00:03:50;7.07;;;5.90;;
57401;SDS011;43226;51.110;6.998;2022-07-01T00:06:17;9.00;;;6.30;;
57401;SDS011;43226;51.110;6.998;2022-07-01T00:08:42;7.37;;;5.83;;
57401;SDS011;43226;51.110;6.998;2022-07-01T00:11:07;9.93;;;6.93;;
57401;SDS011;43226;51.110;6.998;2022-07-01T00:13:33;10.13;;;6.40;;
57401;SDS011;43226;51.110;6.998;2022-07-01T00:15:58;10.20;;;7.17;;
57401;SDS011;43226;51.110;6.998;2022-07-01T00:18:23;10.60;;;6.70;;
57401;SDS011;43226;51.110;6.998;2022-07-01T00:20:49;8.50;;;7.30;;
57401;SDS011;43226;51.110;6.998;2022-07-01T00:23:15;9.47;;;7.57;;
57401;SDS011;43226;51.110;6.998;2022-07-01T00:25:41;12.13;;;7.10;;
57401;SDS011;43226;51.110;6.998;2022-07-01T00:28:07;10.33;;;7.40;;
57401;SDS011;43226;51.110;6.998;2022-07-01T00:30:32;11.20;;;6.90;;
57401;SDS011;43226;51.110;6.998;2022-07-01T00:32:57;9.17;;;6.50;;
57401;SDS011;43226;51.110;6.998;2022-07-01T00:35:22;10.20;;;7.60;;
57401;SDS011;43226;51.110;6.998;2022-07-01T00:37:47;8.40;;;6.60;;
57401;SDS011;43226;51.110;6.998;2022-07-01T00:40:13;10.17;;;7.23;;
57401;SDS011;43226;51.110;6.998;2022-07-01T00:42:38;10.77;;;6.83;;
57401;SDS011;43226;51.110;6.998;2022-07-01T00:45:04;11.17;;;7.57;;
57401;SDS011;43226;51.110;6.998;2022-07-01T00:47:29;10.90;;;6.93;;
57401;SDS011;43226;51.110;6.998;2022-07-01T00:49:54;8.87;;;6.50;;
57401;SDS011;43226;51.110;6.998;2022-07-01T00:52:19;11.57;;;7.50;;
57401;SDS011;43226;51.110;6.998;2022-07-01T00:54:45;11.50;;;6.17;;
57401;SDS011;43226;51.110;6.998;2022-07-01T00:57:10;9.70;;;6.50;;
57401;SDS011;43226;51.110;6.998;2022-07-01T00:59:36;11.93;;;7.47;;
57401;SDS011;43226;51.110;6.998;2022-07-01T01:02:02;10.23;;;6.00;;
57401;SDS011;43226;51.110;6.998;2022-07-01T01:04:27;10.40;;;6.03;;
57401;SDS011;43226;51.110;6.998;2022-07-01T01:06:53;10.50;;;6.13;;
57401;SDS011;43226;51.110;6.998;2022-07-01T01:09:18;13.13;;;6.30;;
57401;SDS011;43226;51.110;6.998;2022-07-01T01:11:43;10.47;;;5.90;;
57401;SDS011;43226;51.110;6.998;2022-07-01T01:14:08;10.80;;;6.20;;
57401;SDS011;43226;51.110;6.998;2022-07-01T01:16:34;9.80;;;5.20;;
57401;SDS011;43226;51.110;6.998;2022-07-01T01:19:03;7.90;;;5.43;;
57401;SDS011;43226;51.110;6.998;2022-07-01T01:21:28;10.33;;;5.30;;
57401;SDS011;43226;51.110;6.998;2022-07-01T01:23:54;7.27;;;4.40;;
57401;SDS011;43226;51.110;6.998;2022-07-01T01:26:21;7.57;;;4.73;;
57401;SDS011;43226;51.110;6.998;2022-07-01T01:28:49;8.33;;;4.70;;
57401;SDS011;43226;51.110;6.998;2022-07-01T01:31:15;6.20;;;4.70;;
57401;SDS011;43226;51.110;6.998;2022-07-01T01:33:40;5.50;;;4.37;;
57401;SDS011;43226;51.110;6.998;2022-07-01T01:36:05;10.27;;;4.63;;
57401;SDS011;43226;51.110;6.998;2022-07-01T01:38:33;5.33;;;4.67;;
57401;SDS011;43226;51.110;6.998;2022-07-01T01:40:58;7.73;;;4.37;;
57401;SDS011;43226;51.110;6.998;2022-07-01T01:43:23;6.90;;;4.90;;
57401;SDS011;43226;51.110;6.998;2022-07-01T01:45:48;7.33;;;5.40;;
57401;SDS011;43226;51.110;6.998;2022-07-01T01:48:13;11.00;;;5.97;;
57401;SDS011;43226;51.110;6.998;2022-07-01T01:50:38;6.93;;;5.17;;
57401;SDS011;43226;51.110;6.998;2022-07-01T01:53:04;6.00;;;5.20;;
57401;SDS011;43226;51.110;6.998;2022-07-01T01:55:29;8.63;;;5.67;;
57401;SDS011;43226;51.110;6.998;2022-07-01T01:57:54;9.40;;;5.90;;
57401;SDS011;43226;51.110;6.998;2022-07-01T02:00:19;8.80;;;5.97;;
57401;SDS011;43226;51.110;6.998;2022-07-01T02:02:44;8.30;;;6.60;;
57401;SDS011;43226;51.110;6.998;2022-07-01T02:05:10;8.13;;;5.63;;
57401;SDS011;43226;51.110;6.998;2022-07-01T02:07:36;11.87;;;6.20;;
57401;SDS011;43226;51.110;6.998;2022-07-01T02:10:01;10.70;;;6.47;;
57401;SDS011;43226;51.110;6.998;2022-07-01T02:12:26;10.13;;;6.70;;
57401;SDS011;43226;51.110;6.998;2022-07-01T02:14:51;8.97;;;7.07;;
57401;SDS011;43226;51.110;6.998;2022-07-01T02:17:17;8.30;;;6.33;;
57401;SDS011;43226;51.110;6.998;2022-07-01T02:19:42;15.53;;;7.30;;
57401;SDS011;43226;51.110;6.998;2022-07-01T02:22:07;11.53;;;7.57;;
57401;SDS011;43226;51.110;6.998;2022-07-01T02:24:32;10.70;;;7.63;;
57401;SDS011;43226;51.110;6.998;2022-07-01T02:26:57;13.87;;;8.13;;
57401;SDS011;43226;51.110;6.998;2022-07-01T02:29:23;12.43;;;8.30;;
57401;SDS011;43226;51.110;6.998;2022-07-01T02:31:48;13.60;;;6.60;;
57401;SDS011;43226;51.110;6.998;2022-07-01T02:34:13;14.40;;;8.67;;
57401;SDS011;43226;51.110;6.998;2022-07-01T02:36:38;12.20;;;7.23;;
57401;SDS011;43226;51.110;6.998;2022-07-01T02:39:04;11.50;;;7.07;;
57401;SDS011;43226;51.110;6.998;2022-07-01T02:41:29;15.37;;;7.10;;
57401;SDS011;43226;51.110;6.998;2022-07-01T02:43:54;10.20;;;6.67;;
57401;SDS011;43226;51.110;6.998;2022-07-01T02:46:19;9.80;;;6.77;;
57401;SDS011;43226;51.110;6.998;2022-07-01T02:48:44;10.10;;;5.77;;
57401;SDS011;43226;51.110;6.998;2022-07-01T02:51:10;11.50;;;6.83;;
57401;SDS011;43226;51.110;6.998;2022-07-01T02:53:35;12.53;;;6.50;;
57401;SDS011;43226;51.110;6.998;2022-07-01T02:56:00;9.83;;;5.50;;
57401;SDS011;43226;51.110;6.998;2022-07-01T02:58:25;10.00;;;6.50;;
57401;SDS011;43226;51.110;6.998;2022-07-01T03:00:51;12.87;;;6.27;;
57401;SDS011;43226;51.110;6.998;2022-07-01T03:03:17;7.60;;;5.50;;
57401;SDS011;43226;51.110;6.998;2022-07-01T03:05:43;13.07;;;6.40;;
57401;SDS011;43226;51.110;6.998;2022-07-01T03:08:08;7.60;;;5.30;;
57401;SDS011;43226;51.110;6.998;2022-07-01T03:10:33;12.30;;;6.10;;
57401;SDS011;43226;51.110;6.998;2022-07-01T03:12:58;11.20;;;5.53;;
57401;SDS011;43226;51.110;6.998;2022-07-01T03:15:24;7.03;;;5.37;;
57401;SDS011;43226;51.110;6.998;2022-07-01T03:17:49;8.60;;;5.70;;
57401;SDS011;43226;51.110;6.998;2022-07-01T03:20:16;7.27;;;5.23;;
57401;SDS011;43226;51.110;6.998;2022-07-01T03:22:42;13.37;;;5.33;;
57401;SDS011;43226;51.110;6.998;2022-07-01T03:25:08;6.97;;;4.60;;
57401;SDS011;43226;51.110;6.998;2022-07-01T03:27:33;9.33;;;5.87;;
57401;SDS011;43226;51.110;6.998;2022-07-01T03:29:59;10.03;;;5.70;;
57401;SDS011;43226;51.110;6.998;2022-07-01T03:32:24;7.97;;;5.80;;
57401;SDS011;43226;51.110;6.998;2022-07-01T03:34:50;9.00;;;4.70;;
57401;SDS011;43226;51.110;6.998;2022-07-01T03:37:16;6.30;;;3.87;;
57401;SDS011;43226;51.110;6.998;2022-07-01T03:39:41;9.53;;;3.63;;
57401;SDS011;43226;51.110;6.998;2022-07-01T03:42:07;5.60;;;3.43;;
57401;SDS011;43226;51.110;6.998;2022-07-01T03:44:33;7.53;;;3.60;;
57401;SDS011;43226;51.110;6.998;2022-07-01T03:46:58;4.70;;;3.43;;
57401;SDS011;43226;51.110;6.998;2022-07-01T03:49:23;5.77;;;3.30;;
57401;SDS011;43226;51.110;6.998;2022-07-01T03:51:48;7.10;;;3.77;;
57401;SDS011;43226;51.110;6.998;2022-07-01T03:54:14;7.73;;;3.37;;
57401;SDS011;43226;51.110;6.998;2022-07-01T03:57:01;6.97;;;3.97;;
57401;SDS011;43226;51.110;6.998;2022-07-01T03:59:27;10.27;;;4.40;;
57401;SDS011;43226;51.110;6.998;2022-07-01T04:01:53;5.97;;;4.27;;
57401;SDS011;43226;51.110;6.998;2022-07-01T04:04:18;8.63;;;3.70;;
57401;SDS011;43226;51.110;6.998;2022-07-01T04:06:44;6.50;;;3.50;;
57401;SDS011;43226;51.110;6.998;2022-07-01T04:09:09;8.90;;;4.50;;
57401;SDS011;43226;51.110;6.998;2022-07-01T04:11:35;9.63;;;4.00;;
57401;SDS011;43226;51.110;6.998;2022-07-01T04:14:02;6.73;;;4.50;;
57401;SDS011;43226;51.110;6.998;2022-07-01T04:16:27;5.87;;;3.80;;
57401;SDS011;43226;51.110;6.998;2022-07-01T04:18:52;4.97;;;4.47;;
57401;SDS011;43226;51.110;6.998;2022-07-01T04:21:17;5.43;;;4.23;;
57401;SDS011;43226;51.110;6.998;2022-07-01T04:24:01;8.73;;;3.53;;
57401;SDS011;43226;51.110;6.998;2022-07-01T04:26:26;7.80;;;4.10;;
57401;SDS011;43226;51.110;6.998;2022-07-01T04:28:52;6.27;;;4.07;;
57401;SDS011;43226;51.110;6.998;2022-07-01T04:31:18;9.20;;;3.43;;
57401;SDS011;43226;51.110;6.998;2022-07-01T04:33:43;6.23;;;3.67;;
57401;SDS011;43226;51.110;6.998;2022-07-01T04:36:09;12.80;;;3.63;;
57401;SDS011;43226;51.110;6.998;2022-07-01T04:38:34;6.73;;;3.63;;
57401;SDS011;43226;51.110;6.998;2022-07-01T04:40:59;4.03;;;3.27;;
57401;SDS011;43226;51.110;6.998;2022-07-01T04:43:43;6.37;;;3.40;;
57401;SDS011;43226;51.110;6.998;2022-07-01T04:46:08;4.73;;;2.70;;
57401;SDS011;43226;51.110;6.998;2022-07-01T04:48:33;8.00;;;3.50;;
57401;SDS011;43226;51.110;6.998;2022-07-01T04:50:58;4.13;;;2.90;;
57401;SDS011;43226;51.110;6.998;2022-07-01T04:53:24;4.63;;;2.70;;
57401;SDS011;43226;51.110;6.998;2022-07-01T04:55:49;6.83;;;2.80;;
57401;SDS011;43226;51.110;6.998;2022-07-01T04:58:14;7.10;;;2.70;;
57401;SDS011;43226;51.110;6.998;2022-07-01T05:00:39;5.03;;;3.00;;
57401;SDS011;43226;51.110;6.998;2022-07-01T05:03:04;11.33;;;3.30;;
57401;SDS011;43226;51.110;6.998;2022-07-01T05:05:30;5.13;;;2.93;;
57401;SDS011;43226;51.110;6.998;2022-07-01T05:07:55;5.87;;;2.77;;
57401;SDS011;43226;51.110;6.998;2022-07-01T05:10:20;7.70;;;2.67;;
57401;SDS011;43226;51.110;6.998;2022-07-01T05:12:45;7.40;;;2.67;;
57401;SDS011;43226;51.110;6.998;2022-07-01T05:15:10;6.40;;;2.97;;
57401;SDS011;43226;51.110;6.998;2022-07-01T05:17:36;8.80;;;2.67;;
57401;SDS011;43226;51.110;6.998;2022-07-01T05:20:19;6.30;;;2.83;;
57401;SDS011;43226;51.110;6.998;2022-07-01T05:23:03;5.90;;;3.00;;
57401;SDS011;43226;51.110;6.998;2022-07-01T05:25:28;5.10;;;2.53;;
57401;SDS011;43226;51.110;6.998;2022-07-01T05:27:54;4.00;;;2.40;;
57401;SDS011;43226;51.110;6.998;2022-07-01T05:30:20;3.80;;;2.30;;
57401;SDS011;43226;51.110;6.998;2022-07-01T05:32:45;5.43;;;2.97;;
57401;SDS011;43226;51.110;6.998;2022-07-01T05:35:10;4.80;;;2.70;;
57401;SDS011;43226;51.110;6.998;2022-07-01T05:37:35;8.13;;;2.83;;
57401;SDS011;43226;51.110;6.998;2022-07-01T05:40:01;4.70;;;2.90;;
57401;SDS011;43226;51.110;6.998;2022-07-01T05:42:26;5.07;;;2.73;;
57401;SDS011;43226;51.110;6.998;2022-07-01T05:44:51;7.87;;;3.03;;
57401;SDS011;43226;51.110;6.998;2022-07-01T05:47:16;3.57;;;2.70;;
57401;SDS011;43226;51.110;6.998;2022-07-01T05:49:41;3.20;;;2.50;;
57401;SDS011;43226;51.110;6.998;2022-07-01T05:52:07;6.07;;;2.53;;
57401;SDS011;43226;51.110;6.998;2022-07-01T05:54:32;4.27;;;2.60;;
57401;SDS011;43226;51.110;6.998;2022-07-01T05:56:57;9.10;;;2.87;;
57401;SDS011;43226;51.110;6.998;2022-07-01T05:59:22;6.83;;;2.60;;
57401;SDS011;43226;51.110;6.998;2022-07-01T06:01:48;6.30;;;2.87;;
57401;SDS011;43226;51.110;6.998;2022-07-01T06:04:15;4.37;;;3.10;;
57401;SDS011;43226;51.110;6.998;2022-07-01T06:06:40;4.77;;;2.63;;
57401;SDS011;43226;51.110;6.998;2022-07-01T06:09:06;5.83;;;2.57;;
57401;SDS011;43226;51.110;6.998;2022-07-01T06:11:31;5.43;;;2.53;;
57401;SDS011;43226;51.110;6.998;2022-07-01T06:13:56;6.20;;;2.30;;
57401;SDS011;43226;51.110;6.998;2022-07-01T06:16:21;6.60;;;2.80;;
57401;SDS011;43226;51.110;6.998;2022-07-01T06:18:46;8.30;;;3.27;;
57401;SDS011;43226;51.110;6.998;2022-07-01T06:21:12;6.30;;;2.73;;
57401;SDS011;43226;51.110;6.998;2022-07-01T06:23:37;6.83;;;3.17;;
57401;SDS011;43226;51.110;6.998;2022-07-01T06:26:02;7.80;;;3.03;;
57401;SDS011;43226;51.110;6.998;2022-07-01T06:28:28;4.00;;;2.87;;
57401;SDS011;43226;51.110;6.998;2022-07-01T06:30:54;7.53;;;3.30;;
57401;SDS011;43226;51.110;6.998;2022-07-01T06:33:20;5.43;;;2.37;;
57401;SDS011;43226;51.110;6.998;2022-07-01T06:35:45;6.03;;;2.97;;
57401;SDS011;43226;51.110;6.998;2022-07-01T06:38:10;7.40;;;3.23;;
57401;SDS011;43226;51.110;6.998;2022-07-01T06:40:36;5.63;;;2.40;;
57401;SDS011;43226;51.110;6.998;2022-07-01T06:43:01;6.83;;;2.30;;
57401;SDS011;43226;51.110;6.998;2022-07-01T06:45:26;6.07;;;3.30;;
57401;SDS011;43226;51.110;6.998;2022-07-01T06:47:51;5.90;;;3.30;;
57401;SDS011;43226;51.110;6.998;2022-07-01T06:50:17;10.13;;;3.77;;
57401;SDS011;43226;51.110;6.998;2022-07-01T06:52:42;5.80;;;2.93;;
57401;SDS011;43226;51.110;6.998;2022-07-01T06:55:07;12.13;;;2.30;;
57401;SDS011;43226;51.110;6.998;2022-07-01T06:57:32;9.90;;;3.10;;
57401;SDS011;43226;51.110;6.998;2022-07-01T06:59:58;6.43;;;2.50;;
57401;SDS011;43226;51.110;6.998;2022-07-01T07:02:23;10.83;;;3.07;;
57401;SDS011;43226;51.110;6.998;2022-07-01T07:04:48;5.60;;;2.00;;
57401;SDS011;43226;51.110;6.998;2022-07-01T07:07:13;5.83;;;2.97;;
57401;SDS011;43226;51.110;6.998;2022-07-01T07:09:39;12.33;;;2.57;;
57401;SDS011;43226;51.110;6.998;2022-07-01T07:12:04;10.67;;;3.07;;
57401;SDS011;43226;51.110;6.998;2022-07-01T07:14:29;4.70;;;2.63;;
57401;SDS011;43226;51.110;6.998;2022-07-01T07:16:54;6.90;;;3.00;;
57401;SDS011;43226;51.110;6.998;2022-07-01T07:19:20;5.30;;;2.70;;
57401;SDS011;43226;51.110;6.998;2022-07-01T07:21:45;5.40;;;2.43;;
57401;SDS011;43226;51.110;6.998;2022-07-01T07:24:10;4.53;;;2.80;;
57401;SDS011;43226;51.110;6.998;2022-07-01T07:26:35;3.73;;;2.53;;
57401;SDS011;43226;51.110;6.998;2022-07-01T07:29:00;4.13;;;3.17;;
57401;SDS011;43226;51.110;6.998;2022-07-01T07:31:26;8.03;;;3.17;;
57401;SDS011;43226;51.110;6.998;2022-07-01T07:33:51;7.43;;;2.73;;
57401;SDS011;43226;51.110;6.998;2022-07-01T07:36:16;3.27;;;2.97;;
57401;SDS011;43226;51.110;6.998;2022-07-01T07:38:41;8.10;;;3.87;;
57401;SDS011;43226;51.110;6.998;2022-07-01T07:41:06;11.03;;;3.80;;
57401;SDS011;43226;51.110;6.998;2022-07-01T07:43:31;5.70;;;3.60;;
57401;SDS011;43226;51.110;6.998;2022-07-01T07:45:57;6.97;;;4.17;;
57401;SDS011;43226;51.110;6.998;2022-07-01T07:48:22;7.83;;;3.53;;
57401;SDS011;43226;51.110;6.998;2022-07-01T07:50:47;11.87;;;3.30;;
57401;SDS011;43226;51.110;6.998;2022-07-01T07:53:12;9.30;;;3.50;;
57401;SDS011;43226;51.110;6.998;2022-07-01T07:55:38;5.30;;;3.10;;
57401;SDS011;43226;51.110;6.998;2022-07-01T07:58:04;6.20;;;3.70;;
57401;SDS011;43226;51.110;6.998;2022-07-01T08:00:29;5.33;;;3.53;;
57401;SDS011;43226;51.110;6.998;2022-07-01T08:02:54;6.10;;;3.10;;
57401;SDS011;43226;51.110;6.998;2022-07-01T08:05:20;4.90;;;2.80;;
57401;SDS011;43226;51.110;6.998;2022-07-01T08:07:45;7.10;;;3.30;;
57401;SDS011;43226;51.110;6.998;2022-07-01T08:10:11;3.67;;;3.00;;
57401;SDS011;43226;51.110;6.998;2022-07-01T08:12:37;6.30;;;3.10;;
57401;SDS011;43226;51.110;6.998;2022-07-01T08:15:02;5.40;;;3.30;;
57401;SDS011;43226;51.110;6.998;2022-07-01T08:17:28;5.00;;;2.93;;
57401;SDS011;43226;51.110;6.998;2022-07-01T08:19:53;4.93;;;2.63;;
57401;SDS011;43226;51.110;6.998;2022-07-01T08:22:18;2.83;;;2.53;;
57401;SDS011;43226;51.110;6.998;2022-07-01T08:24:44;4.73;;;2.57;;
57401;SDS011;43226;51.110;6.998;2022-07-01T08:27:09;10.00;;;3.20;;
57401;SDS011;43226;51.110;6.998;2022-07-01T08:29:35;5.40;;;2.20;;
57401;SDS011;43226;51.110;6.998;2022-07-01T08:32:00;4.97;;;2.57;;
57401;SDS011;43226;51.110;6.998;2022-07-01T08:34:26;6.40;;;2.93;;
57401;SDS011;43226;51.110;6.998;2022-07-01T08:36:51;6.00;;;3.20;;
57401;SDS011;43226;51.110;6.998;2022-07-01T08:39:16;6.00;;;2.60;;
57401;SDS011;43226;51.110;6.998;2022-07-01T08:41:42;7.60;;;2.87;;
57401;SDS011;43226;51.110;6.998;2022-07-01T08:44:07;7.40;;;3.73;;
57401;SDS011;43226;51.110;6.998;2022-07-01T08:46:33;5.73;;;3.10;;
57401;SDS011;43226;51.110;6.998;2022-07-01T08:48:58;4.40;;;3.33;;
57401;SDS011;43226;51.110;6.998;2022-07-01T08:51:23;5.57;;;3.13;;
57401;SDS011;43226;51.110;6.998;2022-07-01T08:53:49;7.63;;;3.33;;
57401;SDS011;43226;51.110;6.998;2022-07-01T08:56:14;5.60;;;3.60;;
57401;SDS011;43226;51.110;6.998;2022-07-01T08:58:57;8.80;;;4.00;;
57401;SDS011;43226;51.110;6.998;2022-07-01T09:01:24;6.97;;;3.27;;
57401;SDS011;43226;51.110;6.998;2022-07-01T09:03:50;4.33;;;3.30;;
57401;SDS011;43226;51.110;6.998;2022-07-01T09:06:18;5.07;;;3.30;;
57401;SDS011;43226;51.110;6.998;2022-07-01T09:08:44;3.40;;;2.70;;
57401;SDS011;43226;51.110;6.998;2022-07-01T09:13:37;6.80;;;2.97;;
57401;SDS011;43226;51.110;6.998;2022-07-01T09:16:10;5.10;;;3.00;;
57401;SDS011;43226;51.110;6.998;2022-07-01T09:18:35;4.37;;;3.33;;
57401;SDS011;43226;51.110;6.998;2022-07-01T09:21:00;4.40;;;3.10;;
57401;SDS011;43226;51.110;6.998;2022-07-01T09:23:25;6.90;;;2.80;;
57401;SDS011;43226;51.110;6.998;2022-07-01T09:25:51;4.87;;;3.40;;
57401;SDS011;43226;51.110;6.998;2022-07-01T09:30:42;3.40;;;2.40;;
57401;SDS011;43226;51.110;6.998;2022-07-01T09:33:08;3.33;;;2.50;;
57401;SDS011;43226;51.110;6.998;2022-07-01T09:35:34;6.20;;;2.80;;
57401;SDS011;43226;51.110;6.998;2022-07-01T09:38:00;4.53;;;2.67;;
57401;SDS011;43226;51.110;6.998;2022-07-01T09:40:25;9.03;;;2.90;;
57401;SDS011;43226;51.110;6.998;2022-07-01T09:42:50;8.40;;;2.40;;
57401;SDS011;43226;51.110;6.998;2022-07-01T09:45:15;4.97;;;2.53;;
57401;SDS011;43226;51.110;6.998;2022-07-01T09:47:41;4.23;;;2.23;;
57401;SDS011;43226;51.110;6.998;2022-07-01T09:50:08;4.27;;;2.13;;
57401;SDS011;43226;51.110;6.998;2022-07-01T09:52:34;4.03;;;2.07;;
57401;SDS011;43226;51.110;6.998;2022-07-01T09:54:59;8.43;;;2.17;;
57401;SDS011;43226;51.110;6.998;2022-07-01T09:57:25;4.50;;;1.90;;
57401;SDS011;43226;51.110;6.998;2022-07-01T09:59:51;3.17;;;1.73;;
57401;SDS011;43226;51.110;6.998;2022-07-01T10:02:20;3.30;;;2.03;;
57401;SDS011;43226;51.110;6.998;2022-07-01T10:10:36;4.20;;;2.13;;
57401;SDS011;43226;51.110;6.998;2022-07-01T10:13:03;2.20;;;2.00;;
57401;SDS011;43226;51.110;6.998;2022-07-01T10:15:30;2.10;;;1.90;;
57401;SDS011;43226;51.110;6.998;2022-07-01T10:17:55;4.13;;;2.23;;
57401;SDS011;43226;51.110;6.998;2022-07-01T10:20:25;3.10;;;2.40;;
57401;SDS011;43226;51.110;6.998;2022-07-01T10:22:53;3.93;;;2.43;;
57401;SDS011;43226;51.110;6.998;2022-07-01T10:25:35;3.63;;;2.17;;
57401;SDS011;43226;51.110;6.998;2022-07-01T10:28:20;3.30;;;1.90;;
57401;SDS011;43226;51.110;6.998;2022-07-01T10:35:52;3.33;;;1.60;;
57401;SDS011;43226;51.110;6.998;2022-07-01T10:38:18;5.00;;;1.83;;
57401;SDS011;43226;51.110;6.998;2022-07-01T10:40:44;3.40;;;1.70;;
57401;SDS011;43226;51.110;6.998;2022-07-01T10:43:17;3.43;;;1.60;;
57401;SDS011;43226;51.110;6.998;2022-07-01T10:45:46;2.53;;;1.70;;
57401;SDS011;43226;51.110;6.998;2022-07-01T10:48:20;5.13;;;1.83;;
57401;SDS011;43226;51.110;6.998;2022-07-01T10:50:46;2.40;;;1.93;;
57401;SDS011;43226;51.110;6.998;2022-07-01T10:53:12;9.67;;;2.03;;
57401;SDS011;43226;51.110;6.998;2022-07-01T10:55:38;3.07;;;1.83;;
57401;SDS011;43226;51.110;6.998;2022-07-01T10:58:04;2.33;;;1.90;;
57401;SDS011;43226;51.110;6.998;2022-07-01T11:00:29;2.70;;;1.77;;
57401;SDS011;43226;51.110;6.998;2022-07-01T11:03:04;4.10;;;1.40;;
57401;SDS011;43226;51.110;6.998;2022-07-01T11:05:29;3.43;;;1.93;;
57401;SDS011;43226;51.110;6.998;2022-07-01T11:07:55;4.90;;;1.87;;
57401;SDS011;43226;51.110;6.998;2022-07-01T11:10:21;2.13;;;1.60;;
57401;SDS011;43226;51.110;6.998;2022-07-01T11:12:46;2.73;;;1.80;;
57401;SDS011;43226;51.110;6.998;2022-07-01T11:15:14;5.57;;;1.50;;
57401;SDS011;43226;51.110;6.998;2022-07-01T11:17:43;5.33;;;1.80;;
57401;SDS011;43226;51.110;6.998;2022-07-01T11:20:09;4.13;;;2.03;;
57401;SDS011;43226;51.110;6.998;2022-07-01T11:22:35;2.77;;;1.67;;
57401;SDS011;43226;51.110;6.998;2022-07-01T11:25:01;8.93;;;2.10;;
57401;SDS011;43226;51.110;6.998;2022-07-01T11:27:27;3.83;;;2.20;;
57401;SDS011;43226;51.110;6.998;2022-07-01T11:29:52;5.00;;;2.13;;
57401;SDS011;43226;51.110;6.998;2022-07-01T11:32:24;2.13;;;1.50;;
57401;SDS011;43226;51.110;6.998;2022-07-01T11:34:50;4.87;;;1.80;;
57401;SDS011;43226;51.110;6.998;2022-07-01T11:37:15;3.00;;;1.90;;
57401;SDS011;43226;51.110;6.998;2022-07-01T11:40:06;5.43;;;1.93;;
57401;SDS011;43226;51.110;6.998;2022-07-01T11:42:32;5.77;;;1.60;;
57401;SDS011;43226;51.110;6.998;2022-07-01T11:44:57;2.60;;;1.43;;
57401;SDS011;43226;51.110;6.998;2022-07-01T11:47:23;6.40;;;1.90;;
57401;SDS011;43226;51.110;6.998;2022-07-01T11:49:49;4.90;;;1.60;;
57401;SDS011;43226;51.110;6.998;2022-07-01T11:52:15;7.40;;;1.40;;
57401;SDS011;43226;51.110;6.998;2022-07-01T11:54:41;1.93;;;1.20;;
57401;SDS011;43226;51.110;6.998;2022-07-01T11:57:13;2.80;;;1.50;;
57401;SDS011;43226;51.110;6.998;2022-07-01T11:59:38;3.73;;;1.17;;
57401;SDS011;43226;51.110;6.998;2022-07-01T12:02:05;4.50;;;1.53;;
57401;SDS011;43226;51.110;6.998;2022-07-01T12:04:30;3.50;;;1.40;;
57401;SDS011;43226;51.110;6.998;2022-07-01T12:06:56;3.10;;;1.20;;
57401;SDS011;43226;51.110;6.998;2022-07-01T12:09:21;1.93;;;1.07;;
57401;SDS011;43226;51.110;6.998;2022-07-01T12:11:48;3.67;;;1.57;;
57401;SDS011;43226;51.110;6.998;2022-07-01T12:14:18;1.50;;;1.23;;
57401;SDS011;43226;51.110;6.998;2022-07-01T12:16:44;4.70;;;1.37;;
57401;SDS011;43226;51.110;6.998;2022-07-01T12:19:09;4.93;;;0.90;;
57401;SDS011;43226;51.110;6.998;2022-07-01T12:21:46;2.20;;;1.20;;
57401;SDS011;43226;51.110;6.998;2022-07-01T12:24:12;3.73;;;1.23;;
57401;SDS011;43226;51.110;6.998;2022-07-01T12:29:22;4.57;;;1.43;;
57401;SDS011;43226;51.110;6.998;2022-07-01T12:31:55;3.20;;;1.30;;
57401;SDS011;43226;51.110;6.998;2022-07-01T12:34:20;2.23;;;1.20;;
57401;SDS011;43226;51.110;6.998;2022-07-01T12:36:46;3.30;;;1.20;;
57401;SDS011;43226;51.110;6.998;2022-07-01T12:39:12;2.10;;;1.00;;
57401;SDS011;43226;51.110;6.998;2022-07-01T12:41:37;3.03;;;1.07;;
57401;SDS011;43226;51.110;6.998;2022-07-01T12:44:22;1.70;;;1.10;;
57401;SDS011;43226;51.110;6.998;2022-07-01T12:46:48;1.60;;;1.17;;
57401;SDS011;43226;51.110;6.998;2022-07-01T12:49:23;3.87;;;1.03;;
57401;SDS011;43226;51.110;6.998;2022-07-01T12:51:49;1.47;;;1.20;;
57401;SDS011;43226;51.110;6.998;2022-07-01T12:56:55;3.60;;;1.10;;
57401;SDS011;43226;51.110;6.998;2022-07-01T12:59:20;2.00;;;1.50;;
57401;SDS011;43226;51.110;6.998;2022-07-01T13:01:45;2.53;;;1.50;;
57401;SDS011;43226;51.110;6.998;2022-07-01T13:04:10;5.47;;;1.40;;
57401;SDS011;43226;51.110;6.998;2022-07-01T13:06:35;2.97;;;1.30;;
57401;SDS011;43226;51.110;6.998;2022-07-01T13:09:01;3.07;;;1.43;;
57401;SDS011;43226;51.110;6.998;2022-07-01T13:11:26;1.87;;;1.00;;
57401;SDS011;43226;51.110;6.998;2022-07-01T13:13:51;1.43;;;1.00;;
57401;SDS011;43226;51.110;6.998;2022-07-01T13:16:16;4.13;;;1.50;;
57401;SDS011;43226;51.110;6.998;2022-07-01T13:18:42;4.03;;;1.73;;
57401;SDS011;43226;51.110;6.998;2022-07-01T13:21:07;2.30;;;1.10;;
57401;SDS011;43226;51.110;6.998;2022-07-01T13:23:32;2.60;;;1.10;;
57401;SDS011;43226;51.110;6.998;2022-07-01T13:25:57;3.73;;;1.40;;
57401;SDS011;43226;51.110;6.998;2022-07-01T13:28:23;3.37;;;1.30;;
57401;SDS011;43226;51.110;6.998;2022-07-01T13:30:48;4.37;;;1.30;;
57401;SDS011;43226;51.110;6.998;2022-07-01T13:33:13;1.67;;;0.70;;
57401;SDS011;43226;51.110;6.998;2022-07-01T13:35:38;2.23;;;1.10;;
57401;SDS011;43226;51.110;6.998;2022-07-01T13:38:03;1.73;;;1.10;;
57401;SDS011;43226;51.110;6.998;2022-07-01T13:40:29;1.87;;;0.90;;
57401;SDS011;43226;51.110;6.998;2022-07-01T13:42:54;2.00;;;1.07;;
57401;SDS011;43226;51.110;6.998;2022-07-01T13:45:19;3.90;;;1.13;;
57401;SDS011;43226;51.110;6.998;2022-07-01T13:47:44;2.83;;;0.90;;
57401;SDS011;43226;51.110;6.998;2022-07-01T13:50:10;1.50;;;1.00;;
57401;SDS011;43226;51.110;6.998;2022-07-01T13:52:35;8.90;;;1.20;;
57401;SDS011;43226;51.110;6.998;2022-07-01T13:55:01;1.77;;;1.10;;
57401;SDS011;43226;51.110;6.998;2022-07-01T13:57:26;1.70;;;1.20;;
57401;SDS011;43226;51.110;6.998;2022-07-01T13:59:51;1.70;;;1.10;;
57401;SDS011;43226;51.110;6.998;2022-07-01T14:02:17;1.57;;;1.00;;
57401;SDS011;43226;51.110;6.998;2022-07-01T14:04:43;2.53;;;1.10;;
57401;SDS011;43226;51.110;6.998;2022-07-01T14:07:09;2.90;;;1.20;;
57401;SDS011;43226;51.110;6.998;2022-07-01T14:09:34;4.57;;;1.33;;
57401;SDS011;43226;51.110;6.998;2022-07-01T14:12:00;1.93;;;1.00;;
57401;SDS011;43226;51.110;6.998;2022-07-01T14:14:25;2.73;;;1.40;;
57401;SDS011;43226;51.110;6.998;2022-07-01T14:16:51;1.87;;;1.10;;
57401;SDS011;43226;51.110;6.998;2022-07-01T14:19:16;1.63;;;1.07;;
57401;SDS011;43226;51.110;6.998;2022-07-01T14:21:41;4.30;;;1.30;;
57401;SDS011;43226;51.110;6.998;2022-07-01T14:24:06;6.90;;;1.00;;
57401;SDS011;43226;51.110;6.998;2022-07-01T14:26:32;2.50;;;0.83;;
57401;SDS011;43226;51.110;6.998;2022-07-01T14:28:57;1.33;;;1.00;;
57401;SDS011;43226;51.110;6.998;2022-07-01T14:31:22;4.73;;;1.00;;
57401;SDS011;43226;51.110;6.998;2022-07-01T14:33:47;1.17;;;0.90;;
57401;SDS011;43226;51.110;6.998;2022-07-01T14:36:13;2.83;;;1.10;;
57401;SDS011;43226;51.110;6.998;2022-07-01T14:38:38;4.00;;;1.00;;
57401;SDS011;43226;51.110;6.998;2022-07-01T14:41:03;3.40;;;1.20;;
57401;SDS011;43226;51.110;6.998;2022-07-01T14:43:28;3.43;;;1.10;;
57401;SDS011;43226;51.110;6.998;2022-07-01T14:45:54;1.30;;;0.83;;
57401;SDS011;43226;51.110;6.998;2022-07-01T14:48:19;1.43;;;0.90;;
57401;SDS011;43226;51.110;6.998;2022-07-01T14:50:45;2.50;;;0.87;;
57401;SDS011;43226;51.110;6.998;2022-07-01T14:53:10;2.30;;;0.80;;
57401;SDS011;43226;51.110;6.998;2022-07-01T14:55:35;1.30;;;0.93;;
57401;SDS011;43226;51.110;6.998;2022-07-01T14:58:01;2.50;;;1.07;;
57401;SDS011;43226;51.110;6.998;2022-07-01T15:00:26;1.40;;;1.07;;